»·PEaware :: CGMWT 2U7-KBOI

CGMWT :: 2U7-KBOI

FLIGHT INFORMATION

Flight Status: Arrived
Operator: Unknown
More flights by this operator :: More flights under this callsign
Pilot: Konrad W. (32064)
Aircraft: Diamond DA-62
(DA62)
More flights by this aircraft type
Origin: 2U7 Stanley
United States
Destination: KBOI Boise Air Terminal/Gowen
United States
More flights between these airports :: More routes between these airports
Route:
File this flight plan on PilotEdge
Remarks:
Altitude:
(Current/Filed)
8,500ft
Speed:
(Current/Filed)
200kts
Departed: 24-Nov-20 07:53 AM
Arrived: 24-Nov-20 08:33 AM
Distance/Time
Traveled:
67nm/0:40
Distance/Time
To Go:
Arrived

Flight Plot

Page will automatically refresh every two minutes.

Flight plan parsing failed; only flown route is shown


Map Options




Map Legend


Flown Route
Filed Route
Departure Airport
Arrival Airport
Navaid (VOR, NDB)
Fix

Horizontal Profiles

Position Reports

Time Latitude Longitude Heading Altitude Ground
Speed
24-Nov-20 07:45 44.211190 -114.933956 4 6406ft 0kts
24-Nov-20 07:46 44.211190 -114.933956 4 6406ft 0kts
24-Nov-20 07:47 44.211190 -114.933956 4 6406ft 0kts
24-Nov-20 07:48 44.211190 -114.933955 4 6406ft 0kts
24-Nov-20 07:49 44.211190 -114.933956 4 6406ft 0kts
24-Nov-20 07:50 44.212851 -114.933248 13 6403ft 24kts
24-Nov-20 07:51 44.214224 -114.932815 186 6404ft 0kts
24-Nov-20 07:52 44.209167 -114.934285 192 6412ft 78kts
24-Nov-20 07:53 44.176066 -114.936185 181 7154ft 145kts
24-Nov-20 07:54 44.134238 -114.923772 164 8076ft 159kts
24-Nov-20 07:55 44.095554 -114.940784 249 8473ft 180kts
24-Nov-20 07:56 44.069232 -115.000782 222 8655ft 179kts
24-Nov-20 07:57 44.040422 -115.034157 283 10085ft 151kts
24-Nov-20 07:58 44.034558 -115.094362 295 10482ft 185kts
24-Nov-20 07:59 44.058557 -115.158306 298 10590ft 183kts
24-Nov-20 08:00 44.075689 -115.220059 266 10532ft 169kts
24-Nov-20 08:01 44.063433 -115.282060 246 10517ft 166kts
24-Nov-20 08:02 44.045420 -115.341553 247 10511ft 167kts
24-Nov-20 08:03 44.026242 -115.400856 243 10479ft 168kts
24-Nov-20 08:04 44.006167 -115.459399 250 10464ft 168kts
24-Nov-20 08:05 44.013355 -115.522169 291 10457ft 169kts
24-Nov-20 08:06 44.030515 -115.583406 291 10448ft 169kts
24-Nov-20 08:07 44.048333 -115.648361 290 9640ft 189kts
24-Nov-20 08:08 44.062750 -115.718623 278 8617ft 186kts
24-Nov-20 08:09 44.065772 -115.786194 272 8443ft 168kts
24-Nov-20 08:10 44.067936 -115.850660 272 8431ft 166kts
24-Nov-20 08:11 44.070367 -115.914566 273 8418ft 165kts
24-Nov-20 08:12 44.076610 -115.977779 280 8417ft 165kts
24-Nov-20 08:13 44.085066 -116.040339 280 8491ft 163kts
24-Nov-20 08:14 44.077354 -116.100254 235 8480ft 164kts
24-Nov-20 08:15 44.050065 -116.152436 233 7825ft 167kts
24-Nov-20 08:16 44.022879 -116.204932 234 7006ft 166kts
24-Nov-20 08:17 43.991263 -116.250172 216 6262ft 163kts
24-Nov-20 08:18 43.954841 -116.287774 216 5460ft 162kts
24-Nov-20 08:19 43.918933 -116.325160 216 4672ft 160kts
24-Nov-20 08:20 43.885382 -116.360260 216 4484ft 143kts
24-Nov-20 08:21 43.852939 -116.394217 216 4171ft 147kts
24-Nov-20 08:22 43.820614 -116.428211 216 3816ft 143kts
24-Nov-20 08:23 43.787252 -116.454270 195 3687ft 134kts
24-Nov-20 08:24 43.751444 -116.464996 190 3760ft 128kts
24-Nov-20 08:25 43.717194 -116.454733 156 3785ft 130kts
24-Nov-20 08:26 43.684884 -116.431945 149 3783ft 130kts
24-Nov-20 08:27 43.658581 -116.398141 126 3783ft 130kts
24-Nov-20 08:28 43.636958 -116.358191 126 3783ft 130kts
24-Nov-20 08:29 43.617016 -116.316626 124 3781ft 130kts
24-Nov-20 08:30 43.589703 -116.287239 121 3599ft 119kts
24-Nov-20 08:31 43.575012 -116.251016 115 3032ft 106kts
24-Nov-20 08:32 43.568411 -116.228919 24 2842ft 0kts
24-Nov-20 08:33 43.568241 -116.227601 117 2844ft 26kts
24-Nov-20 08:34 43.564946 -116.213475 53 2859ft 27kts
24-Nov-20 08:35 43.565389 -116.212297 90 2860ft 0kts
24-Nov-20 08:36 43.565389 -116.212297 90 2860ft 0kts
24-Nov-20 08:37 43.565389 -116.212297 90 2860ft 0kts
24-Nov-20 08:38 43.565389 -116.212297 90 2860ft 0kts
24-Nov-20 08:39 43.565389 -116.212297 90 2860ft 0kts
24-Nov-20 08:41 43.565389 -116.212297 90 2860ft 0kts
24-Nov-20 08:42 43.565389 -116.212297 90 2860ft 0kts
24-Nov-20 08:43 43.565389 -116.212297 90 2860ft 0kts
24-Nov-20 08:44 43.565389 -116.212297 90 2860ft 0kts
24-Nov-20 08:45 43.565389 -116.212297 90 2860ft 0kts
24-Nov-20 08:46 43.565389 -116.212297 90 2860ft 0kts
24-Nov-20 08:47 43.565389 -116.212297 90 2860ft 0kts

Navigation Log

Ident Type
Flight plan parsing failed, navigation log unavailable